createdAt,value
2023-03-31T00:01:16.036Z,10.8609669056249
2023-03-31T00:04:16.661Z,10.829495132921512
2023-03-31T00:07:17.417Z,10.737649001541376
2023-03-31T00:11:16.830Z,10.693973950711461
2023-03-31T00:14:19.892Z,10.609193029715334
2023-03-31T00:17:17.327Z,10.58157501953101
2023-03-31T00:21:25.198Z,10.569371715383841
2023-03-31T00:24:17.577Z,10.519273957666973
2023-03-31T00:27:17.036Z,10.49743648219237
2023-03-31T00:31:16.960Z,10.454403825319968
2023-03-31T00:34:16.602Z,10.426785862261113
2023-03-31T00:37:16.488Z,10.407517520920464
2023-03-31T00:41:17.413Z,10.347143411222442
2023-03-31T00:44:21.487Z,10.297688053429374
2023-03-31T00:47:19.479Z,10.296403499040753
2023-03-31T00:51:19.154Z,10.20134652475972
2023-03-31T00:54:22.498Z,10.20134652475972
2023-03-31T00:57:17.220Z,10.149322141821994
2023-03-31T01:01:22.294Z,10.154460351154649
2023-03-31T01:04:19.094Z,10.124915651466381
2023-03-31T01:07:21.775Z,10.101793719291981
2023-03-31T01:11:21.340Z,10.097940064502563
2023-03-31T01:14:16.567Z,10.04077753768397
2023-03-31T01:17:22.034Z,10.076744966087062
2023-03-31T01:41:33.220Z,10.028574306287283
2023-03-31T01:44:27.518Z,9.962419975182275
2023-03-31T01:47:25.367Z,9.987468696818633
2023-03-31T01:51:27.583Z,9.995818272234464
2023-03-31T01:54:22.724Z,9.982972771913046
2023-03-31T01:57:22.405Z,9.974623197679557
2023-03-31T02:01:24.104Z,9.963062250009624
2023-03-31T02:04:21.345Z,9.964346799677969
2023-03-31T02:07:23.899Z,9.947005380690097
2023-03-31T02:11:16.298Z,9.910395729269021
2023-03-31T02:14:23.560Z,9.907184357042206
2023-03-31T02:17:23.236Z,9.862225157803914
2023-03-31T02:21:17.435Z,9.854517868743278
2023-03-31T02:24:20.561Z,9.840387840499535
2023-03-31T02:27:21.840Z,9.80056686365424
2023-03-31T02:31:28.507Z,9.792217306210024
2023-03-31T02:34:17.551Z,9.73377042561915
2023-03-31T02:37:17.571Z,9.701656770994669
2023-03-31T02:41:16.320Z,9.647705856818721
2023-03-31T02:44:16.823Z,9.638071768378087
2023-03-31T02:47:19.545Z,9.669543127738871
2023-03-31T03:02:05.825Z,9.62394177384931
2023-03-31T03:04:33.177Z,9.585405436321253
2023-03-31T03:07:25.672Z,9.520535971788922
2023-03-31T03:11:25.295Z,9.543015483948784
2023-03-31T03:14:26.107Z,9.505121452384628
2023-03-31T03:17:24.051Z,9.521178243487611
2023-03-31T03:21:16.141Z,9.498056465199715
2023-03-31T03:24:18.496Z,9.492918293047206
2023-03-31T03:27:17.169Z,9.539161852897177
2023-03-31T03:31:16.825Z,9.50062555138511
2023-03-31T03:34:19.097Z,9.498056465199715
2023-03-31T03:37:16.415Z,9.455024282410523
2023-03-31T03:41:16.347Z,9.438325231900672
2023-03-31T03:44:16.691Z,9.40556941098339
2023-03-31T03:47:16.610Z,9.354830025462798
2023-03-31T03:51:16.971Z,9.412634390965104
2023-03-31T03:54:17.302Z,9.402358056628145
2023-03-31T03:57:17.511Z,9.403642598356601
2023-03-31T04:01:17.207Z,9.428691165697183
2023-03-31T04:04:17.910Z,9.457593367377195
2023-03-31T04:07:17.924Z,9.44025204526415
2023-03-31T04:11:19.564Z,9.455024282410523
2023-03-31T04:14:17.490Z,9.446674756771335
2023-03-31T04:17:16.810Z,9.469154250627616
2023-03-31T04:21:23.649Z,9.51539779836312
2023-03-31T04:24:22.172Z,9.463373808818233
2023-03-31T04:27:18.203Z,9.41134984910932
2023-03-31T04:31:26.437Z,9.449886112695458
2023-03-31T04:34:17.500Z,9.419699371497064
2023-03-31T04:37:17.552Z,9.404284869227649
2023-03-31T04:41:16.827Z,9.441536587529209
2023-03-31T04:44:16.683Z,9.449243841501538
2023-03-31T04:47:17.012Z,9.430617978856025
2023-03-31T04:51:16.800Z,9.3445536976742
2023-03-31T04:54:16.919Z,9.32785466750065
2023-03-31T04:57:16.940Z,9.288676185698659
2023-03-31T05:01:19.351Z,9.329781478517635
2023-03-31T05:04:17.254Z,9.302163857851701
2023-03-31T05:07:17.745Z,9.309871099982411
2023-03-31T05:11:16.632Z,9.309871099982411
2023-03-31T05:14:16.666Z,9.277115325449358
2023-03-31T05:17:18.394Z,9.318862883295878
2023-03-31T05:21:18.203Z,9.267481276367107
2023-03-31T05:24:16.935Z,9.29124526595415
2023-03-31T05:27:16.720Z,9.27005035602233
2023-03-31T05:31:16.890Z,9.288033915646157
2023-03-31T05:34:16.731Z,9.315009261766681
2023-03-31T05:37:16.711Z,9.305375208659916
2023-03-31T05:41:17.376Z,9.316936072510817
2023-03-31T05:44:16.891Z,9.406211681868081
2023-03-31T05:47:17.567Z,9.393366265038276
2023-03-31T05:51:16.510Z,9.469796521962508
2023-03-31T05:54:16.956Z,9.508332810377851
2023-03-31T05:57:16.930Z,9.526958688980448
2023-03-31T06:01:20.173Z,9.598250880344949
2023-03-31T06:04:17.115Z,9.659909036979025
2023-03-31T06:07:18.415Z,9.69073813101213
2023-03-31T06:11:18.751Z,9.767810911933429
2023-03-31T06:14:17.058Z,9.817265980848243
2023-03-31T06:17:16.981Z,9.862225157803914
2023-03-31T06:21:18.039Z,9.91232255265968
2023-03-31T06:24:16.983Z,9.931590788817266
2023-03-31T06:27:17.118Z,10.006094673801272
2023-03-31T06:31:19.012Z,10.133907515570263
2023-03-31T06:34:18.518Z,10.209053843287984
2023-03-31T06:37:17.167Z,10.257224598925768
2023-03-31T06:41:17.836Z,10.370907683648692
2023-03-31T06:44:17.480Z,10.488444582054308
2023-03-31T06:47:16.719Z,10.55973752905884
2023-03-31T06:51:16.435Z,10.680486071616542
2023-03-31T06:54:16.807Z,10.780681792777978
2023-03-31T06:57:16.779Z,10.84619443952688
2023-03-31T07:01:17.061Z,10.963731953751358
2023-03-31T07:04:17.951Z,11.033740709455742
2023-03-31T07:07:17.467Z,11.097326690356658
2023-03-31T07:11:20.956Z,11.192384603509073
2023-03-31T07:14:17.370Z,11.284231195293614
2023-03-31T07:17:17.360Z,11.386354437996578
2023-03-31T07:21:17.072Z,11.487193224413568
2023-03-31T07:24:17.627Z,11.576470969632737
2023-03-31T07:27:17.369Z,11.664464228952784
2023-03-31T07:31:16.930Z,11.796133134062348
2023-03-31T07:34:16.509Z,11.87384999213391
2023-03-31T07:37:16.929Z,11.944501739065526
2023-03-31T07:41:18.775Z,12.042129698102144
2023-03-31T07:44:18.121Z,12.128838828763492
2023-03-31T07:47:16.817Z,12.26307757229697
2023-03-31T07:51:19.283Z,12.394105054202736
2023-03-31T07:54:17.092Z,12.480814521286174
2023-03-31T07:57:18.094Z,12.57523159081029
2023-03-31T08:01:20.796Z,12.712040172021897
2023-03-31T08:04:16.680Z,12.803246007448706
2023-03-31T08:07:17.182Z,12.885459796836312
2023-03-31T08:11:17.164Z,13.008780620616108
2023-03-31T08:14:21.944Z,13.08906770536123
2023-03-31T08:17:16.938Z,13.169354861160627
2023-03-31T08:21:17.260Z,13.265699541911545
2023-03-31T08:24:17.109Z,13.344059957707305
2023-03-31T08:27:17.399Z,13.427558835911714
2023-03-31T08:31:20.533Z,13.54638429508923
2023-03-31T08:34:17.240Z,13.622818051085142
2023-03-31T08:37:17.316Z,13.68062513620398
2023-03-31T08:41:34.271Z,13.811012363433838
2023-03-31T08:44:24.312Z,13.883592526777011
2023-03-31T08:47:20.765Z,13.97993796604651
2023-03-31T08:51:20.545Z,14.07435659579969
2023-03-31T08:54:24.248Z,14.14822157874014
2023-03-31T08:57:21.339Z,14.20153286466375
2023-03-31T09:01:47.667Z,14.310724752903116
2023-03-31T09:05:56.811Z,14.394866827025634
2023-03-31T09:07:30.077Z,14.455243630592395
2023-03-31T09:11:30.760Z,14.564435824194607
2023-03-31T09:14:26.915Z,14.66848968391796
2023-03-31T09:17:23.587Z,14.720516658533597
2023-03-31T09:21:21.832Z,14.832278408593629
2023-03-31T09:24:20.615Z,14.902932459548174
2023-03-31T09:27:19.183Z,14.994782808050605
2023-03-31T09:31:19.705Z,15.096910227803528
2023-03-31T09:34:22.757Z,15.166922173174044
2023-03-31T09:37:16.691Z,15.258772788945134
2023-03-31T09:41:18.091Z,15.36154281891977
2023-03-31T09:44:38.494Z,15.366681323474404
2023-03-31T09:47:24.801Z,15.438620417798301
2023-03-31T09:51:21.818Z,15.533040565666397
2023-03-31T09:54:23.908Z,15.571579429770736
2023-03-31T09:57:25.445Z,15.61011831024598
2023-03-31T10:01:16.718Z,15.760420100523424
2023-03-31T10:04:22.826Z,15.815016966336406
2023-03-31T10:07:22.139Z,15.914576041519558
2023-03-31T10:11:17.879Z,15.98908484023059
2023-03-31T10:14:23.329Z,16.074513107155507
2023-03-31T10:17:19.413Z,16.156729861059283
2023-03-31T10:21:22.082Z,16.24858147892528
2023-03-31T10:24:18.681Z,16.280055131613334
2023-03-31T10:27:22.626Z,16.356491190740872
2023-03-31T10:31:17.284Z,16.410446094779125
2023-03-31T10:34:18.124Z,16.49523243738231
2023-03-31T10:37:20.653Z,16.536983317021804
2023-03-31T10:41:19.679Z,16.652601237833732
2023-03-31T10:44:34.908Z,16.680863418664376
2023-03-31T10:47:19.717Z,16.732891547306007
2023-03-31T10:51:18.809Z,16.784919705783615
2023-03-31T10:54:16.856Z,16.81061263455522
2023-03-31T10:57:23.822Z,16.897326322876417
2023-03-31T11:01:31.973Z,16.920449987092525
2023-03-31T11:04:32.257Z,16.976332199946047
2023-03-31T11:07:32.125Z,17.044418620743453
2023-03-31T11:11:30.333Z,17.173526030674203
2023-03-31T11:14:29.241Z,17.251247495391
2023-03-31T11:17:30.961Z,17.294283376394834
2023-03-31T11:21:26.717Z,17.357873745393952
2023-03-31T11:24:30.240Z,17.3758589083478
2023-03-31T11:27:33.370Z,17.440733990055833
2023-03-31T11:31:57.312Z,17.580119223498333
2023-03-31T11:34:30.179Z,17.66811830603556
2023-03-31T11:37:37.450Z,17.790803300777043
2023-03-31T11:41:21.759Z,17.848613041665885
2023-03-31T11:44:21.067Z,17.943678028995418
2023-03-31T11:47:21.917Z,18.051589756942484
2023-03-31T11:51:24.016Z,18.176202269132773
2023-03-31T11:54:19.677Z,18.26227492903454
2023-03-31T11:57:21.284Z,18.286041274885882
2023-03-31T12:01:23.299Z,18.40551543212432
2023-03-31T12:04:29.993Z,18.4145081169926
2023-03-31T12:07:23.926Z,18.454975209929763
2023-03-31T12:11:24.201Z,18.539763463181224
2023-03-31T12:14:29.486Z,18.568668567627263
2023-03-31T12:17:19.666Z,18.709340207389687
2023-03-31T12:21:18.898Z,18.83588063588768
2023-03-31T12:24:16.909Z,18.894975718787556
2023-03-31T12:27:21.533Z,19.000961561710575
2023-03-31T12:31:20.711Z,19.076115234439293
2023-03-31T12:34:19.089Z,19.17824724844104
2023-03-31T12:37:35.936Z,19.233488511469112
2023-03-31T12:41:28.166Z,19.321489197618302
2023-03-31T12:44:27.981Z,19.351679233697723
2023-03-31T12:47:31.905Z,19.45445389991255
2023-03-31T12:51:28.554Z,19.504556591901927
2023-03-31T12:54:43.184Z,19.54887822710889
2023-03-31T12:57:20.981Z,19.528323263161383
2023-03-31T13:01:18.482Z,19.559798053600026
2023-03-31T13:04:20.490Z,19.54309714302799
2023-03-31T13:07:38.673Z,19.518688125413973
2023-03-31T13:11:17.670Z,19.43903769255885
2023-03-31T13:14:20.856Z,19.51804578293386
2023-03-31T13:17:28.629Z,19.527038578069277
2023-03-31T13:21:16.867Z,19.456380926015935
2023-03-31T13:24:21.787Z,19.50584127667571
2023-03-31T13:27:30.352Z,19.534746688894757
2023-03-31T13:31:17.716Z,19.507125961467683
2023-03-31T13:34:17.224Z,19.525111550465226
2023-03-31T13:37:32.165Z,19.423621487824494
2023-03-31T13:41:32.295Z,19.42747553876252
2023-03-31T13:44:37.213Z,19.282306399813752
2023-03-31T13:47:38.554Z,19.18274362905804
2023-03-31T13:51:25.640Z,19.138422172703212
2023-03-31T13:55:53.352Z,19.212933618971512
2023-03-31T13:57:37.610Z,19.214860639945346
2023-03-31T14:01:39.689Z,19.14227621152677
2023-03-31T14:04:37.957Z,19.175035548136748
2023-03-31T14:07:20.900Z,19.17567788818851
2023-03-31T14:11:20.923Z,19.202656174468938
2023-03-31T14:14:20.353Z,19.149984289665007
2023-03-31T14:17:17.049Z,19.161546408100186
2023-03-31T14:21:24.916Z,19.13906451249577
2023-03-31T14:24:27.089Z,19.13392579428264
2023-03-31T14:27:37.987Z,19.108232207582567
2023-03-31T14:31:26.109Z,19.10758986800829
2023-03-31T14:34:38.886Z,19.123648358729497
2023-03-31T14:37:19.536Z,19.148699609929828
2023-03-31T14:41:19.521Z,19.218072341659354
2023-03-31T14:44:18.036Z,19.218714682015797
2023-03-31T14:47:21.312Z,19.25018936505221
2023-03-31T14:51:23.081Z,19.303503648984133
2023-03-31T14:54:18.353Z,19.289372148986967
2023-03-31T14:57:19.572Z,19.272671288191578
2023-03-31T15:01:22.915Z,19.328554949842875
2023-03-31T15:04:25.946Z,19.341401773479085
2023-03-31T15:07:17.650Z,19.343328797181403
2023-03-31T15:11:19.462Z,19.37416118198462
2023-03-31T15:14:17.461Z,19.343328797181403
2023-03-31T15:17:19.794Z,19.455096241942464
2023-03-31T15:21:22.596Z,19.52575389299536
2023-03-31T15:24:17.391Z,19.62082063759599
2023-03-31T15:27:35.907Z,19.659361238107614
2023-03-31T15:31:16.985Z,19.73901186437588
2023-03-31T15:34:24.884Z,19.799392224430722
2023-03-31T15:37:22.227Z,19.916941338518882
2023-03-31T15:41:17.156Z,19.946489227213895
2023-03-31T15:44:54.661Z,20.024213067335314
2023-03-31T15:47:18.592Z,20.059542107582093
2023-03-31T15:51:19.656Z,20.071104341923274
2023-03-31T15:54:50.012Z,20.111572173720287
2023-03-31T15:57:18.303Z,20.143047166485122
2023-03-31T16:01:17.123Z,20.198289016919443
2023-03-31T16:04:17.736Z,20.224625259779806
2023-03-31T16:07:22.843Z,20.25931203033333
2023-03-31T16:11:21.386Z,20.22719464973643
2023-03-31T16:14:20.244Z,20.198931364215333
2023-03-31T16:17:26.203Z,20.15525175845405
2023-03-31T16:21:21.330Z,20.15460941146739
2023-03-31T16:24:18.513Z,20.109645133701633
2023-03-31T16:27:17.146Z,20.111572173720287
2023-03-31T16:31:29.467Z,20.10193697403629
2023-03-31T16:34:17.622Z,20.035775297174496
2023-03-31T16:37:17.402Z,19.96961366855685
2023-03-31T16:41:17.788Z,19.88546642418887
2023-03-31T16:44:17.758Z,19.824443662204793
2023-03-31T16:47:27.480Z,19.68762435555409
2023-03-31T16:51:18.172Z,19.56108273915597
2023-03-31T16:54:17.155Z,19.559798053600026
2023-03-31T16:57:17.256Z,19.516761097987274
2023-03-31T17:01:16.540Z,19.43903769255885
2023-03-31T17:04:16.836Z,19.35938732962568
2023-03-31T17:07:16.819Z,19.268817243829197
2023-03-31T17:11:16.595Z,19.247620002762414
2023-03-31T17:14:17.137Z,19.147414930212836
2023-03-31T17:17:17.970Z,19.027939796040663
2023-03-31T17:21:18.733Z,19.013166000056753
2023-03-31T17:24:17.286Z,18.889194676370607
2023-03-31T17:27:17.390Z,18.763938847785994
2023-03-31T17:31:18.561Z,18.677865711972935
2023-03-31T17:34:17.428Z,18.56096053887459
2023-03-31T17:37:18.578Z,18.51021603259869
2023-03-31T17:41:18.098Z,18.39266874100149
2023-03-31T17:44:17.186Z,18.31494629850058
2023-03-31T17:47:17.966Z,18.18455259823322
2023-03-31T17:51:18.026Z,18.118392319514896
2023-03-31T17:54:17.787Z,18.030392800251956
2023-03-31T17:57:17.125Z,17.9205541039908
2023-03-31T18:01:17.351Z,17.736205245981637
2023-03-31T18:04:18.029Z,17.632790196952193
2023-03-31T18:07:19.498Z,17.533871564701258
2023-03-31T18:11:17.529Z,17.5030398052666
2023-03-31T18:14:17.690Z,17.50496678992431
2023-03-31T18:17:17.724Z,17.364297017468196
2023-03-31T18:21:16.475Z,17.290429416069763
2023-03-31T18:24:17.346Z,17.218488853384862
2023-03-31T18:27:17.596Z,17.134344160481486
2023-03-31T18:31:16.647Z,17.02386422417512
2023-03-31T18:34:16.974Z,16.999455884298367
2023-03-31T18:37:17.017Z,16.892187731628745
2023-03-31T18:41:18.349Z,16.863925484968878
2023-03-31T18:44:18.057Z,16.84594042349645
2023-03-31T18:47:17.130Z,16.72454135181033
2023-03-31T18:51:16.295Z,16.688571287691595
2023-03-31T18:54:17.530Z,16.63011996391442
2023-03-31T18:57:16.303Z,16.533771710213568
2023-03-31T19:01:15.643Z,16.443846765739817
2023-03-31T19:04:16.298Z,16.43549659684686
2023-03-31T19:07:16.782Z,16.365483672518984
2023-03-31T19:11:16.564Z,16.39438808427112
2023-03-31T19:14:17.151Z,16.30767487664061
2023-03-31T19:17:17.833Z,16.202334498865913
2023-03-31T19:21:16.188Z,16.199765222887162
2023-03-31T19:24:17.153Z,16.122044658920277
2023-03-31T19:27:16.865Z,16.091855697481606
2023-03-31T19:31:16.558Z,16.109198291122812
2023-03-31T19:34:17.811Z,16.099563516468425
2023-03-31T19:37:16.843Z,16.04560879731225
2023-03-31T19:41:18.189Z,16.009639002367567
2023-03-31T19:44:16.262Z,15.938341772393324
2023-03-31T19:47:16.534Z,15.957611288482804
2023-03-31T19:51:17.227Z,15.938341772393324
2023-03-31T19:54:17.633Z,15.872825448302683
2023-03-31T19:57:16.813Z,15.833001823445375
2023-03-31T20:01:19.401Z,15.854198266757976
2023-03-31T20:04:18.373Z,15.736012100552125
2023-03-31T20:07:16.529Z,15.761062416400819
2023-03-31T20:11:16.583Z,15.717384947097162
2023-03-31T20:14:17.565Z,15.76234704816925
2023-03-31T20:17:17.000Z,15.653153412790562
2023-03-31T20:21:19.185Z,15.639664796363741
2023-03-31T20:24:18.165Z,15.603695162363238
2023-03-31T20:27:16.751Z,15.515055768020193
2023-03-31T20:31:18.380Z,15.459174455225366
2023-03-31T20:34:17.728Z,15.388519971078495
2023-03-31T20:37:16.449Z,15.385950718146342
2023-03-31T20:41:18.990Z,15.397512356914012
2023-03-31T20:44:17.352Z,15.343558055270478
2023-03-31T20:47:17.139Z,15.36475438423231
2023-03-31T20:51:19.728Z,15.352550436649471
2023-03-31T20:54:19.011Z,15.285749910544837
2023-03-31T20:57:17.636Z,15.294099973618085
2023-03-31T21:01:17.265Z,15.266480537155076
2023-03-31T21:04:17.283Z,15.22023405771797
2023-03-31T21:07:16.874Z,15.198395450622774
2023-03-31T21:11:16.485Z,15.202249322081116
2023-03-31T21:14:16.627Z,15.140587398392745
2023-03-31T21:17:16.222Z,15.097552538983383
2023-03-31T21:21:17.360Z,15.134806595195641
2023-03-31T21:24:16.710Z,15.1360912180965
2023-03-31T21:27:16.648Z,15.104617962261909
2023-03-31T21:31:18.065Z,15.091771738528404
2023-03-31T21:34:16.892Z,15.06672160747994
2023-03-31T21:37:16.886Z,15.035890686453877
2023-03-31T21:41:17.567Z,15.078283205565914
2023-03-31T21:44:16.445Z,15.032679132782869
2023-03-31T21:47:16.877Z,14.982578910235315
2023-03-31T21:51:16.884Z,14.988359703732659
2023-03-31T21:54:16.751Z,14.989002014143988
2023-03-31T21:57:16.552Z,14.9594557399294
2023-03-31T22:01:18.371Z,14.90036322036758
2023-03-31T22:04:17.313Z,14.870174665445756
2023-03-31T22:07:16.795Z,14.878524690270206
2023-03-31T22:11:16.019Z,14.832278408593629
2023-03-31T22:14:16.720Z,14.813009131519356
2023-03-31T22:17:16.674Z,14.757128251148334
2023-03-31T22:21:18.162Z,14.778324443099336
2023-03-31T22:24:16.784Z,14.753916707345343
2023-03-31T22:27:17.431Z,14.684547388949431
2023-03-31T22:31:16.620Z,14.667847375775818
2023-03-31T22:34:19.531Z,14.642797361779321
2023-03-31T22:37:16.938Z,14.581135818332495
2023-03-31T22:41:16.525Z,14.518189702625477
2023-03-31T22:44:17.106Z,14.483505126919136
2023-03-31T22:47:16.742Z,14.428909062393723
2023-03-31T22:51:16.395Z,14.42505522378633
2023-03-31T22:54:16.898Z,14.401289889324925
2023-03-31T22:57:17.196Z,14.364678440310309
2023-03-31T23:01:19.038Z,14.369816888403511
2023-03-31T23:04:16.448Z,14.319074726236522
2023-03-31T23:07:17.016Z,14.25034804551542
2023-03-31T23:11:17.803Z,14.317147809245217
2023-03-31T23:14:16.570Z,14.216305877149807
2023-03-31T23:17:16.445Z,14.176482979424417
2023-03-31T23:21:18.746Z,14.144367752056223
2023-03-31T23:24:19.835Z,14.078852723477121
2023-03-31T23:27:16.717Z,14.012695438706213
2023-03-31T23:31:17.625Z,14.051233656978365
2023-03-31T23:34:16.706Z,14.001133976416895
2023-03-31T23:37:16.609Z,14.013980045718199
2023-03-31T23:41:17.444Z,14.046737530669725
2023-03-31T23:44:16.804Z,14.046737530669725
2023-03-31T23:47:16.763Z,13.996637852591174
2023-03-31T23:51:17.246Z,14.007557010840173
2023-03-31T23:54:17.215Z,14.015906956270282
2023-03-31T23:57:17.224Z,13.999849369586808
